Time;durP1;ratioP1;P1;durP2;ratioP2;P2;SDS_P1;SDS_P2;PMS_P1;PMS_P2;Temp;Humidity;BMP_temperature;BMP_pressure;BME280_temperature;BME280_humidity;BME280_pressure;Samples;Min_cycle;Max_cycle;Signal;HPM_P1;HPM_P2
2021/02/05 00:08:56;;;;;;;45.5;36.1;;;;;;;-0.03;91.65527;98892.44;;;;
2021/02/05 00:18:53;;;;;;;43.5;34.5;;;;;;;0.11;91.61816;98901.77;;;;
2021/02/05 00:28:51;;;;;;;47;34.5;;;;;;;0.24;90.89941;98903.38;;;;
2021/02/05 00:38:49;;;;;;;58.5;38.5;;;;;;;0.05;91.03516;98904.53;;;;
2021/02/05 00:48:47;;;;;;;53.4;41.8;;;;;;;0.12;90.80957;98907.88;;;;
2021/02/05 00:58:44;;;;;;;47;38.5;;;;;;;-0.12;91.74414;98909.73;;;;
2021/02/05 01:08:45;;;;;;;48.7;35.9;;;;;;;0.11;90.87305;98915.02;;;;
2021/02/05 01:18:40;;;;;;;38.3;32.8;;;;;;;0.04;91.14258;98921.46;;;;
2021/02/05 01:28:38;;;;;;;51.7;36.7;;;;;;;0.19;90.72559;98913.86;;;;
2021/02/05 01:38:35;;;;;;;48.9;35.9;;;;;;;0.25;90.27832;98924.33;;;;
2021/02/05 01:48:33;;;;;;;53.1;37.9;;;;;;;0.25;90.4209;98918.22;;;;
2021/02/05 01:58:31;;;;;;;50.9;34;;;;;;;0.07;90.80859;98939.58;;;;
2021/02/05 02:08:30;;;;;;;43.2;34.3;;;;;;;-0.06;90.99023;98943.23;;;;
2021/02/05 02:18:26;;;;;;;40.6;30.3;;;;;;;-0.04;91.55469;98944.65;;;;
2021/02/05 02:28:24;;;;;;;42.6;33.2;;;;;;;-0.09;91.28027;98943.7;;;;
2021/02/05 02:38:22;;;;;;;38.2;31.1;;;;;;;-0.26;91.74805;98951.53;;;;
2021/02/05 02:48:20;;;;;;;43.8;32.9;;;;;;;-0.3;91.45605;98966.25;;;;
2021/02/05 02:58:17;;;;;;;38.2;30.2;;;;;;;-0.37;92.3584;98964.73;;;;
2021/02/05 03:08:15;;;;;;;47.3;34.9;;;;;;;-0.42;92.26074;98961.98;;;;
2021/02/05 03:18:14;;;;;;;52.9;34.8;;;;;;;-0.46;92.14355;98964.28;;;;
2021/02/05 03:28:10;;;;;;;50.5;35.4;;;;;;;-0.39;91.9707;98967.63;;;;
2021/02/05 03:38:08;;;;;;;50.7;32.8;;;;;;;-0.43;92.80566;98977.06;;;;
2021/02/05 03:48:05;;;;;;;53;38.1;;;;;;;-0.48;92.69824;98966.33;;;;
2021/02/05 03:58:03;;;;;;;40.8;32.9;;;;;;;-0.53;92.82813;98963.56;;;;
2021/02/05 04:08:01;;;;;;;45.3;31.7;;;;;;;-0.5;93.00977;98976.34;;;;
2021/02/05 04:17:58;;;;;;;47.9;32.8;;;;;;;-0.4;92.33008;98975.78;;;;
2021/02/05 04:27:56;;;;;;;35.8;28.3;;;;;;;-0.41;92.67871;98959.09;;;;
2021/02/05 04:37:54;;;;;;;33.1;29.5;;;;;;;-0.41;92.64551;98943.2;;;;
2021/02/05 04:47:51;;;;;;;45.3;28;;;;;;;-0.54;92.24512;98946.06;;;;
2021/02/05 04:57:49;;;;;;;26.8;23.3;;;;;;;-0.52;92.66602;98944.8;;;;
2021/02/05 05:07:47;;;;;;;33.7;24.8;;;;;;;-0.34;92.21094;98956.34;;;;
2021/02/05 05:17:44;;;;;;;29.2;25.7;;;;;;;-0.24;91.5332;98954.74;;;;
2021/02/05 05:27:42;;;;;;;30.7;25.3;;;;;;;-0.19;90.98535;98962.82;;;;
2021/02/05 05:37:39;;;;;;;38.5;29.7;;;;;;;-0.17;90.16797;98965.22;;;;
2021/02/05 05:47:37;;;;;;;51;31.6;;;;;;;-0.35;90.73242;98966.15;;;;
2021/02/05 05:57:35;;;;;;;34.2;27.3;;;;;;;-0.46;90.97266;98980.16;;;;
2021/02/05 06:07:32;;;;;;;44.3;30.2;;;;;;;-0.38;90.67188;98990.41;;;;
2021/02/05 06:17:30;;;;;;;31;25.7;;;;;;;-0.44;90.73535;98980.73;;;;
2021/02/05 06:27:29;;;;;;;38.4;28.2;;;;;;;-0.56;91.16895;98987.84;;;;
2021/02/05 06:37:25;;;;;;;38.8;27.9;;;;;;;-0.52;90.83691;98983.69;;;;
2021/02/05 06:47:23;;;;;;;33.4;26.9;;;;;;;-0.44;90.82324;99012.5;;;;
2021/02/05 06:57:23;;;;;;;44;32.3;;;;;;;-0.48;90.75;99016.63;;;;
2021/02/05 07:07:22;;;;;;;34.9;27.8;;;;;;;-0.46;91.47559;98998.7;;;;
2021/02/05 07:17:16;;;;;;;36.3;30.2;;;;;;;-0.49;91.38965;99006.28;;;;
2021/02/05 07:27:16;;;;;;;37;31.6;;;;;;;-0.45;91.40137;99018.82;;;;
2021/02/05 07:37:14;;;;;;;36.5;28.9;;;;;;;-0.68;89.77344;99008.16;;;;
2021/02/05 07:47:09;;;;;;;29;24.7;;;;;;;-0.66;89.70313;99020.13;;;;
2021/02/05 07:57:07;;;;;;;43.8;27.1;;;;;;;-0.37;89.10742;99034.39;;;;
2021/02/05 08:07:04;;;;;;;37.1;26;;;;;;;-0.34;88.45313;99043.72;;;;
2021/02/05 08:17:02;;;;;;;42;29.2;;;;;;;-0.53;88.89844;99046.44;;;;
2021/02/05 08:27:00;;;;;;;35.4;28.4;;;;;;;-0.24;88.25684;99043.97;;;;
2021/02/05 08:36:57;;;;;;;41;31.5;;;;;;;-0.13;88.29199;99038.72;;;;
2021/02/05 08:46:55;;;;;;;50.6;33.6;;;;;;;-0.29;88.75;99063.21;;;;
2021/02/05 08:56:53;;;;;;;44.7;31.6;;;;;;;-0.19;88.41016;99071.42;;;;
2021/02/05 09:06:51;;;;;;;41.3;29.7;;;;;;;-0.2;89.35059;99061.84;;;;
2021/02/05 09:16:48;;;;;;;43.9;33.3;;;;;;;-0.03;88.30078;99072.59;;;;
2021/02/05 09:26:46;;;;;;;48.6;30.9;;;;;;;-0.21;88.74414;99092;;;;
2021/02/05 09:36:44;;;;;;;32.1;28.4;;;;;;;-0.08;87.89453;99081.24;;;;
2021/02/05 09:46:42;;;;;;;40.9;30.5;;;;;;;0.11;86.47168;99070.55;;;;
2021/02/05 09:56:40;;;;;;;34.8;29.4;;;;;;;0.21;86.31836;99052.27;;;;
2021/02/05 10:06:38;;;;;;;30.3;26.8;;;;;;;0.21;86.37305;99057.56;;;;
2021/02/05 10:16:36;;;;;;;43.4;29.7;;;;;;;0.2;85.44824;99045.34;;;;
2021/02/05 10:26:33;;;;;;;42;29.7;;;;;;;0.35;85.40234;99040.38;;;;
2021/02/05 10:36:31;;;;;;;37;28.2;;;;;;;0.27;84.72656;99041.55;;;;
2021/02/05 10:46:29;;;;;;;40.3;28.6;;;;;;;0.18;85.43359;99045.56;;;;
2021/02/05 10:56:27;;;;;;;41.9;28.9;;;;;;;0.44;85.12305;99046.97;;;;
2021/02/05 11:06:25;;;;;;;27.6;21.4;;;;;;;0.31;82.72363;99034.73;;;;
2021/02/05 11:16:25;;;;;;;33.9;22.3;;;;;;;0.45;81.77051;99043.28;;;;
2021/02/05 11:26:20;;;;;;;29.6;25.9;;;;;;;0.25;82.85449;99021.59;;;;
2021/02/05 11:36:18;;;;;;;37.4;25.5;;;;;;;0.36;81.67871;99013.65;;;;
2021/02/05 11:46:16;;;;;;;31.9;24.1;;;;;;;0.01;82.51074;99020.77;;;;
2021/02/05 11:56:14;;;;;;;37.2;26;;;;;;;-0.14;82.78027;99018.55;;;;
2021/02/05 12:06:14;;;;;;;44.3;26.9;;;;;;;-0.26;83.50293;99009.79;;;;
2021/02/05 12:16:09;;;;;;;31.8;28.3;;;;;;;-0.17;84.40918;99011.06;;;;
2021/02/05 12:26:07;;;;;;;39.5;27;;;;;;;-0.26;84.37012;98993.91;;;;
2021/02/05 12:36:05;;;;;;;34.2;30.5;;;;;;;-0.18;84.73535;98990.13;;;;
2021/02/05 12:46:03;;;;;;;34.2;25;;;;;;;-0.13;84.65918;98993.69;;;;
2021/02/05 12:56:00;;;;;;;31.7;24.7;;;;;;;-0.03;84.66797;98970.08;;;;
2021/02/05 13:05:58;;;;;;;44.2;27.8;;;;;;;-0.04;84.25977;98989.69;;;;
2021/02/05 13:15:56;;;;;;;40.7;28.1;;;;;;;0.05;83.48535;98989.32;;;;
2021/02/05 13:25:54;;;;;;;30.3;27;;;;;;;-0.13;83.13184;98998.17;;;;
2021/02/05 13:35:51;;;;;;;27.6;24.6;;;;;;;-0.23;82.82715;98977.55;;;;
2021/02/05 13:45:49;;;;;;;41.1;27.4;;;;;;;-0.48;83.27441;99003.39;;;;
2021/02/05 13:55:47;;;;;;;43.9;32.8;;;;;;;-0.58;83.43945;98998.65;;;;
2021/02/05 14:05:45;;;;;;;35.2;26.8;;;;;;;-0.79;84.15625;98983.27;;;;
2021/02/05 14:15:42;;;;;;;72.7;50.1;;;;;;;-0.71;83.99512;98950.39;;;;
2021/02/05 14:25:40;;;;;;;35.5;28.1;;;;;;;-0.71;82.59082;98985.61;;;;
2021/02/05 14:35:38;;;;;;;34;24.9;;;;;;;-0.92;83.09863;99006.45;;;;
2021/02/05 14:45:36;;;;;;;33.9;26.8;;;;;;;-0.8;82.79492;98979;;;;
2021/02/05 14:55:33;;;;;;;31.1;24;;;;;;;-0.84;81.50293;98937.36;;;;
2021/02/05 15:05:31;;;;;;;31.9;21.3;;;;;;;-0.99;80.90137;98936.95;;;;
2021/02/05 15:15:28;;;;;;;50.9;36.1;;;;;;;-1.25;81.31445;98941.55;;;;
2021/02/05 15:25:26;;;;;;;25.1;19.7;;;;;;;-1.39;81.08984;98929.55;;;;
2021/02/05 15:35:24;;;;;;;28.3;19.9;;;;;;;-1.28;80.43066;98972.91;;;;
2021/02/05 15:45:21;;;;;;;21.7;17.6;;;;;;;-1.3;80.16406;98948.55;;;;
2021/02/05 15:55:19;;;;;;;22.5;16.8;;;;;;;-1.3;80.35254;98959.92;;;;
2021/02/05 16:05:16;;;;;;;25;20;;;;;;;-1.29;80.67188;98960.74;;;;
2021/02/05 16:15:15;;;;;;;24.7;22;;;;;;;-1.3;81.08691;98946.7;;;;
2021/02/05 16:25:15;;;;;;;31.5;23.7;;;;;;;-1.39;80.75;98942.77;;;;
2021/02/05 16:35:09;;;;;;;24.6;19.7;;;;;;;-1.38;80.55664;98952.28;;;;
2021/02/05 16:45:08;;;;;;;36.8;25.6;;;;;;;-1.35;80.39551;98948.38;;;;
2021/02/05 16:55:05;;;;;;;31.6;22.9;;;;;;;-1.36;79.80371;98952.89;;;;
2021/02/05 17:05:02;;;;;;;22.6;19.2;;;;;;;-1.38;80.44531;98956.77;;;;
2021/02/05 17:15:00;;;;;;;29.9;20.1;;;;;;;-1.38;79.97559;98954.93;;;;
2021/02/05 17:24:58;;;;;;;29.1;19.7;;;;;;;-1.4;80.30078;98959.64;;;;
2021/02/05 17:34:55;;;;;;;25.7;21.7;;;;;;;-1.38;80.4248;98936.42;;;;
2021/02/05 17:44:53;;;;;;;29.1;23.6;;;;;;;-1.37;80.88477;98921.38;;;;
2021/02/05 17:54:50;;;;;;;36.6;25.1;;;;;;;-1.32;81.14746;98924.17;;;;
2021/02/05 18:04:48;;;;;;;33.5;25.1;;;;;;;-1.3;81.20508;98908.88;;;;
2021/02/05 18:14:46;;;;;;;38.6;24.9;;;;;;;-1.31;81.22559;98865.77;;;;
2021/02/05 18:24:43;;;;;;;38.4;29.4;;;;;;;-1.26;81.69629;98887.07;;;;
2021/02/05 18:34:41;;;;;;;40.2;28.5;;;;;;;-1.21;82.2002;98876.61;;;;
2021/02/05 18:44:44;;;;;;;41.7;27.6;;;;;;;-1.1;82.15332;98875.05;;;;
2021/02/05 18:54:36;;;;;;;41;30.2;;;;;;;-1.2;82.33105;98874.78;;;;
2021/02/05 19:04:34;;;;;;;31.7;25.6;;;;;;;-1.16;82.14258;98907.68;;;;
2021/02/05 19:14:32;;;;;;;25.2;20.6;;;;;;;-1.17;82.09668;98900.77;;;;
2021/02/05 19:24:30;;;;;;;34.3;22.7;;;;;;;-1.09;81.78418;98908.41;;;;
2021/02/05 19:34:27;;;;;;;57.1;42.6;;;;;;;-1.07;80.99902;98901.84;;;;
2021/02/05 19:44:27;;;;;;;27.8;21.8;;;;;;;-1.09;81.29004;98897.83;;;;
2021/02/05 19:54:23;;;;;;;27.7;22.9;;;;;;;-1.38;79.12012;98907.34;;;;
2021/02/05 20:04:20;;;;;;;29.7;20.7;;;;;;;-1.51;78.05371;98904.88;;;;
2021/02/05 20:14:18;;;;;;;23;19.5;;;;;;;-1.58;77.36133;98909.43;;;;
2021/02/05 20:24:15;;;;;;;37.7;18.6;;;;;;;-1.71;77.16309;98899.02;;;;
2021/02/05 20:34:15;;;;;;;25.1;18.3;;;;;;;-1.71;76.8125;98877.88;;;;
2021/02/05 20:44:15;;;;;;;26.1;18.9;;;;;;;-1.77;76.4834;98873.49;;;;
2021/02/05 20:54:08;;;;;;;23.2;18.7;;;;;;;-1.84;76.54688;98855.05;;;;
2021/02/05 21:04:06;;;;;;;28.7;19.6;;;;;;;-1.94;76.38477;98835.5;;;;
2021/02/05 21:14:03;;;;;;;33.8;19.5;;;;;;;-1.98;76.06055;98855.45;;;;
2021/02/05 21:24:01;;;;;;;35.8;23.5;;;;;;;-2;75.75098;98857.48;;;;
2021/02/05 21:33:58;;;;;;;29.4;21.9;;;;;;;-1.96;75.89941;98861.3;;;;
2021/02/05 21:43:56;;;;;;;30.2;21.2;;;;;;;-2.04;75.74316;98857.11;;;;
2021/02/05 21:53:53;;;;;;;24.5;15.7;;;;;;;-1.98;74.97559;98868.66;;;;
2021/02/05 22:03:51;;;;;;;29.1;20.4;;;;;;;-2;75.15918;98860.94;;;;
2021/02/05 22:13:48;;;;;;;33.1;20.1;;;;;;;-2.08;75.07031;98880.51;;;;
2021/02/05 22:23:46;;;;;;;35.5;22.4;;;;;;;-2.2;77.47949;98858.52;;;;
2021/02/05 22:33:43;;;;;;;33.4;19.4;;;;;;;-2.38;79.63281;98881.42;;;;
2021/02/05 22:43:41;;;;;;;26.5;20.9;;;;;;;-2.5;81.73242;98873.42;;;;
2021/02/05 22:53:38;;;;;;;38.4;22.6;;;;;;;-2.68;83.11621;98860.18;;;;
2021/02/05 23:03:36;;;;;;;23.3;17.5;;;;;;;-2.88;84.50488;98848.98;;;;
2021/02/05 23:13:33;;;;;;;19.4;17;;;;;;;-2.95;85.43945;98853.5;;;;
2021/02/05 23:23:33;;;;;;;20.4;14.1;;;;;;;-2.86;85.45703;98846.93;;;;
2021/02/05 23:33:28;;;;;;;28.9;19.1;;;;;;;-2.95;85.89746;98842.95;;;;
2021/02/05 23:43:25;;;;;;;23.3;19.3;;;;;;;-3;86.30273;98832.23;;;;
2021/02/05 23:53:23;;;;;;;22.5;19.1;;;;;;;-3;86.54395;98840.95;;;;
